Time;durP1;ratioP1;P1;durP2;ratioP2;P2;SDS_P1;SDS_P2;PMS_P1;PMS_P2;Temp;Humidity;BMP_temperature;BMP_pressure;BME280_temperature;BME280_humidity;BME280_pressure;Samples;Min_cycle;Max_cycle;Signal;HPM_P1;HPM_P2
2023/11/03 00:01:55;;;;;;;1.50;1.37;;;17.40;55.10;;;;;;5061173;28;20032;-34
2023/11/03 00:04:22;;;;;;;1.65;1.25;;;17.30;55.00;;;;;;5054651;28;20279;-34
2023/11/03 00:06:49;;;;;;;2.00;1.30;;;17.30;55.00;;;;;;5058485;28;20029;-34
2023/11/03 00:09:15;;;;;;;1.38;1.13;;;17.30;55.00;;;;;;5043211;28;20044;-33
2023/11/03 00:11:45;;;;;;;1.52;1.30;;;17.20;55.00;;;;;;5051204;28;20036;-33
2023/11/03 00:14:11;;;;;;;1.17;1.08;;;17.20;55.10;;;;;;5062751;28;20032;-33
2023/11/03 00:16:37;;;;;;;1.20;1.10;;;17.30;55.30;;;;;;5070133;28;20040;-36
2023/11/03 00:19:04;;;;;;;1.23;1.05;;;17.40;55.60;;;;;;5093983;28;20017;-34
2023/11/03 00:21:36;;;;;;;1.15;0.93;;;17.40;55.40;;;;;;5102352;28;20038;-34
2023/11/03 00:24:04;;;;;;;1.25;1.00;;;17.30;55.20;;;;;;5091704;28;20031;-34
2023/11/03 00:26:30;;;;;;;;;;;17.30;55.20;;;;;;5100692;28;20032;-33
2023/11/03 00:28:56;;;;;;;1.20;1.10;;;17.20;55.20;;;;;;5094245;28;19919;-33
2023/11/03 00:31:22;;;;;;;1.13;1.02;;;17.20;55.20;;;;;;5103942;28;20058;-33
2023/11/03 00:33:48;;;;;;;1.63;1.10;;;17.20;55.20;;;;;;5098241;28;20024;-33
2023/11/03 00:36:15;;;;;;;1.13;1.02;;;17.20;55.40;;;;;;5090129;28;20032;-34
2023/11/03 00:38:46;;;;;;;1.30;1.00;;;17.30;55.50;;;;;;5089106;28;20032;-33
2023/11/03 00:41:14;;;;;;;1.13;1.02;;;17.30;55.70;;;;;;5097935;28;20044;-34
2023/11/03 00:43:46;;;;;;;1.23;1.10;;;17.30;55.50;;;;;;5090270;28;20048;-34
2023/11/03 00:46:13;;;;;;;1.23;0.90;;;17.30;55.50;;;;;;5094219;28;20105;-34
2023/11/03 00:48:42;;;;;;;0.80;0.80;;;17.20;55.40;;;;;;5088951;28;20062;-34
2023/11/03 00:51:10;;;;;;;1.00;0.90;;;17.20;55.30;;;;;;5097358;28;20024;-34
2023/11/03 00:53:37;;;;;;;1.25;1.10;;;17.20;55.30;;;;;;5109540;28;20049;-34
2023/11/03 00:56:09;;;;;;;0.90;0.90;;;17.10;55.50;;;;;;5098956;28;20040;-34
2023/11/03 00:58:35;;;;;;;0.75;0.63;;;17.20;55.70;;;;;;5095993;28;20055;-34
2023/11/03 01:01:03;;;;;;;1.08;0.93;;;17.30;55.80;;;;;;5096825;28;20469;-34
2023/11/03 01:03:31;;;;;;;1.30;1.05;;;17.30;55.80;;;;;;5076769;28;20091;-34
2023/11/03 01:06:02;;;;;;;1.70;0.95;;;17.30;55.70;;;;;;5085649;28;20032;-34
2023/11/03 01:08:29;;;;;;;1.10;0.90;;;17.20;55.70;;;;;;5094344;28;20055;-34
2023/11/03 01:10:56;;;;;;;1.05;0.88;;;17.20;55.50;;;;;;5092510;28;20044;-33
2023/11/03 01:13:23;;;;;;;2.53;1.00;;;17.20;55.60;;;;;;5089437;28;20033;-33
2023/11/03 01:15:51;;;;;;;;;;;17.10;55.50;;;;;;5085290;28;20078;-34
2023/11/03 01:18:18;;;;;;;0.98;0.90;;;17.20;55.80;;;;;;5092525;28;19935;-33
2023/11/03 01:20:48;;;;;;;1.00;0.80;;;17.30;56.00;;;;;;5094884;28;20036;-33
2023/11/03 01:23:17;;;;;;;1.27;0.90;;;17.30;56.00;;;;;;5101273;28;20043;-34
2023/11/03 01:25:45;;;;;;;1.67;0.90;;;17.30;55.90;;;;;;5092187;28;20029;-34
2023/11/03 01:28:15;;;;;;;0.98;0.77;;;17.20;55.80;;;;;;5091706;28;20044;-33
2023/11/03 01:30:41;;;;;;;0.93;0.80;;;17.20;55.70;;;;;;5093084;28;20044;-33
2023/11/03 01:33:09;;;;;;;1.17;1.00;;;17.10;55.70;;;;;;5084914;28;20039;-33
2023/11/03 01:35:36;;;;;;;3.03;0.90;;;17.10;55.70;;;;;;5095883;28;20123;-34
2023/11/03 01:38:04;;;;;;;0.88;0.68;;;17.10;55.80;;;;;;5097888;28;20560;-34
2023/11/03 01:40:30;;;;;;;0.98;0.80;;;17.20;56.00;;;;;;5098302;28;20028;-33
2023/11/03 01:42:57;;;;;;;1.63;0.97;;;17.30;56.20;;;;;;5091593;28;20033;-33
2023/11/03 01:45:23;;;;;;;1.00;0.90;;;17.30;56.10;;;;;;5091997;28;20036;-33
2023/11/03 01:47:50;;;;;;;1.10;0.80;;;17.20;56.00;;;;;;5087630;28;20142;-33
2023/11/03 01:50:17;;;;;;;2.35;1.00;;;17.20;56.00;;;;;;5094812;28;20032;-33
2023/11/03 01:52:44;;;;;;;1.17;1.00;;;17.10;55.90;;;;;;5104521;28;20029;-33
2023/11/03 01:55:11;;;;;;;1.47;1.00;;;17.10;55.90;;;;;;5095642;28;20553;-33
2023/11/03 01:57:39;;;;;;;1.10;1.00;;;17.00;55.90;;;;;;5092164;28;20028;-33
2023/11/03 02:00:07;;;;;;;1.27;0.90;;;17.20;56.20;;;;;;5084026;28;20032;-33
2023/11/03 02:02:34;;;;;;;1.45;1.10;;;17.30;56.40;;;;;;5090416;28;20040;-33
2023/11/03 02:05:02;;;;;;;1.92;1.40;;;17.20;56.20;;;;;;5067725;28;20393;-33
2023/11/03 02:07:29;;;;;;;1.05;0.85;;;17.20;56.10;;;;;;5091864;28;20046;-33
2023/11/03 02:09:55;;;;;;;2.58;1.10;;;17.20;56.20;;;;;;5095228;28;20020;-34
2023/11/03 02:12:22;;;;;;;1.40;1.00;;;17.10;56.00;;;;;;5094012;28;20047;-33
2023/11/03 02:14:49;;;;;;;1.98;1.15;;;17.10;56.10;;;;;;5101740;28;20023;-33
2023/11/03 02:17:37;;;;;;;1.88;1.20;;;17.10;56.20;;;;;;5102024;28;20040;-33
2023/11/03 02:20:07;;;;;;;1.42;1.33;;;17.20;56.40;;;;;;5020885;28;20033;-33
2023/11/03 02:22:35;;;;;;;1.48;1.05;;;17.30;56.50;;;;;;5019954;28;20042;-34
2023/11/03 02:25:01;;;;;;;1.50;1.10;;;17.20;56.30;;;;;;5019647;28;20593;-34
2023/11/03 02:27:27;;;;;;;1.60;1.20;;;17.10;56.10;;;;;;5020031;28;20049;-33
2023/11/03 02:29:54;;;;;;;1.90;1.30;;;17.10;56.10;;;;;;5020468;28;20037;-33
2023/11/03 02:32:21;;;;;;;1.50;1.23;;;17.10;56.20;;;;;;5020368;28;20046;-33
2023/11/03 02:34:47;;;;;;;1.42;1.05;;;17.00;56.20;;;;;;5020612;28;20037;-34
2023/11/03 02:37:14;;;;;;;1.88;1.23;;;17.10;56.40;;;;;;5020513;28;20045;-33
2023/11/03 02:39:41;;;;;;;1.23;1.10;;;17.20;56.40;;;;;;5020200;28;20037;-33
2023/11/03 02:42:07;;;;;;;1.63;1.27;;;17.20;56.30;;;;;;5020392;28;20034;-33
2023/11/03 02:44:33;;;;;;;1.57;1.20;;;17.20;56.30;;;;;;5019809;28;20081;-34
2023/11/03 02:47:00;;;;;;;1.60;1.33;;;17.10;56.10;;;;;;5020705;28;20033;-33
2023/11/03 02:49:27;;;;;;;2.35;1.30;;;17.10;56.20;;;;;;5020390;28;20046;-33
2023/11/03 02:51:53;;;;;;;1.55;1.30;;;17.00;56.20;;;;;;5023160;28;20649;-33
2023/11/03 02:54:19;;;;;;;1.52;1.00;;;17.10;56.40;;;;;;5023127;28;20060;-33
2023/11/03 02:56:45;;;;;;;2.13;1.20;;;17.20;56.40;;;;;;5042980;28;20036;-33
2023/11/03 02:59:11;;;;;;;1.70;1.40;;;17.20;56.90;;;;;;5097028;28;20035;-33
2023/11/03 03:01:39;;;;;;;1.83;1.23;;;17.20;56.40;;;;;;5084060;28;20634;-34
2023/11/03 03:04:05;;;;;;;1.15;1.05;;;17.10;56.20;;;;;;5084631;28;20112;-33
2023/11/03 03:06:32;;;;;;;1.60;1.30;;;17.10;56.30;;;;;;5091898;28;20043;-33
2023/11/03 03:08:59;;;;;;;1.58;1.30;;;17.00;56.30;;;;;;5090448;28;20047;-33
2023/11/03 03:11:25;;;;;;;1.35;1.20;;;17.00;56.30;;;;;;5091191;28;20048;-33
2023/11/03 03:13:51;;;;;;;1.30;1.10;;;17.20;56.60;;;;;;5091262;28;20028;-33
2023/11/03 03:16:18;;;;;;;1.35;1.05;;;17.20;56.50;;;;;;5095097;28;20039;-36
2023/11/03 03:18:45;;;;;;;1.63;1.25;;;17.20;56.40;;;;;;5084594;28;20061;-33
2023/11/03 03:21:11;;;;;;;1.52;1.27;;;17.10;56.40;;;;;;5083606;28;20037;-33
2023/11/03 03:23:37;;;;;;;1.80;1.30;;;17.10;56.40;;;;;;5091180;28;20136;-33
2023/11/03 03:26:03;;;;;;;2.17;1.40;;;17.00;56.40;;;;;;5100482;28;20036;-33
2023/11/03 03:28:29;;;;;;;1.63;1.27;;;17.00;56.50;;;;;;5093098;28;20421;-33
2023/11/03 03:30:56;;;;;;;1.70;1.33;;;17.20;56.60;;;;;;5090877;28;20032;-33
2023/11/03 03:33:22;;;;;;;1.13;1.02;;;17.20;56.70;;;;;;5097837;28;20028;-33
2023/11/03 03:35:49;;;;;;;1.42;1.17;;;17.20;56.50;;;;;;5092101;28;20028;-34
2023/11/03 03:38:15;;;;;;;1.70;1.20;;;17.10;56.40;;;;;;5091187;28;20037;-34
2023/11/03 03:40:41;;;;;;;1.60;1.40;;;17.10;57.10;;;;;;5089772;28;20092;-34
2023/11/03 03:43:07;;;;;;;1.25;1.15;;;17.00;56.40;;;;;;5102740;28;20659;-34
2023/11/03 03:45:33;;;;;;;1.50;1.30;;;17.10;56.60;;;;;;5097356;28;20028;-34
2023/11/03 03:47:59;;;;;;;1.33;1.20;;;17.20;56.70;;;;;;5087727;28;20043;-34
2023/11/03 03:50:25;;;;;;;1.42;1.02;;;17.20;56.70;;;;;;5094820;28;20028;-34
2023/11/03 03:52:52;;;;;;;1.70;1.08;;;17.20;56.60;;;;;;5107323;28;20812;-33
2023/11/03 03:55:18;;;;;;;1.70;1.27;;;17.10;56.60;;;;;;5098463;28;20068;-33
2023/11/03 03:57:44;;;;;;;1.35;1.10;;;17.10;56.60;;;;;;5097010;28;20028;-34
2023/11/03 04:00:10;;;;;;;1.75;1.45;;;17.00;56.60;;;;;;5097590;28;20036;-34
2023/11/03 04:02:37;;;;;;;1.40;1.23;;;17.10;56.70;;;;;;5096590;28;20096;-34
2023/11/03 04:05:03;;;;;;;1.67;1.30;;;17.20;56.80;;;;;;5099559;28;20024;-34
2023/11/03 04:07:29;;;;;;;1.40;1.27;;;17.20;56.80;;;;;;5093638;28;20041;-34
2023/11/03 04:09:56;;;;;;;1.95;1.40;;;17.10;56.70;;;;;;5090892;28;20129;-34
2023/11/03 04:12:23;;;;;;;2.20;1.42;;;17.10;56.70;;;;;;5101445;28;20085;-34
2023/11/03 04:14:49;;;;;;;2.50;1.30;;;17.00;56.70;;;;;;5086799;28;20044;-33
2023/11/03 04:17:15;;;;;;;1.67;1.23;;;17.00;56.70;;;;;;5093409;28;20035;-34
2023/11/03 04:19:41;;;;;;;1.50;1.20;;;17.10;56.80;;;;;;5095351;28;20028;-34
2023/11/03 04:22:07;;;;;;;2.08;1.58;;;17.20;56.80;;;;;;5097167;28;20036;-33
2023/11/03 04:24:34;;;;;;;1.55;1.20;;;17.20;56.70;;;;;;5103136;28;20036;-33
2023/11/03 04:27:02;;;;;;;2.03;1.40;;;17.10;56.70;;;;;;5097044;28;20032;-34
2023/11/03 04:29:28;;;;;;;2.60;1.45;;;17.10;56.70;;;;;;5102640;28;20032;-34
2023/11/03 04:31:54;;;;;;;1.50;1.23;;;17.00;56.70;;;;;;5097321;28;20032;-34
2023/11/03 04:34:20;;;;;;;2.28;1.40;;;17.00;56.70;;;;;;5096224;28;20028;-34
2023/11/03 04:36:47;;;;;;;2.10;1.48;;;17.10;56.90;;;;;;5089106;28;20027;-33
2023/11/03 04:39:13;;;;;;;1.90;1.30;;;17.20;56.90;;;;;;5103585;28;20062;-33
2023/11/03 04:41:39;;;;;;;1.55;1.23;;;17.20;56.80;;;;;;5102869;28;20055;-34
2023/11/03 04:44:05;;;;;;;1.77;1.45;;;17.10;56.80;;;;;;5096577;28;20121;-34
2023/11/03 04:46:32;;;;;;;2.27;1.60;;;17.00;56.70;;;;;;5093785;28;20060;-34
2023/11/03 04:48:58;;;;;;;2.33;1.35;;;17.00;56.80;;;;;;5095116;28;20752;-34
2023/11/03 04:51:25;;;;;;;1.80;1.50;;;17.00;56.90;;;;;;5084609;28;20082;-34
2023/11/03 04:53:51;;;;;;;2.00;1.40;;;17.10;56.90;;;;;;5105644;28;20292;-34
2023/11/03 04:56:17;;;;;;;1.63;1.27;;;17.20;56.90;;;;;;5097314;28;20119;-33
2023/11/03 04:58:43;;;;;;;2.80;1.70;;;17.20;56.80;;;;;;5102677;28;20031;-33
2023/11/03 05:01:11;;;;;;;2.35;1.70;;;17.10;56.70;;;;;;5103065;28;20084;-33
2023/11/03 05:03:37;;;;;;;2.47;1.88;;;17.00;56.70;;;;;;5093579;28;20061;-34
2023/11/03 05:06:03;;;;;;;3.22;1.50;;;17.00;56.70;;;;;;5091060;28;20077;-34
2023/11/03 05:08:29;;;;;;;2.17;1.60;;;17.00;56.90;;;;;;5095052;28;20489;-34
2023/11/03 05:10:55;;;;;;;1.40;1.30;;;17.10;56.90;;;;;;5103276;28;20032;-34
2023/11/03 05:13:22;;;;;;;2.38;1.58;;;17.10;56.90;;;;;;5102568;28;20032;-33
2023/11/03 05:15:48;;;;;;;1.90;1.65;;;17.10;56.80;;;;;;5099179;28;20032;-33
2023/11/03 05:18:14;;;;;;;2.47;1.73;;;17.10;56.80;;;;;;5093029;28;20123;-34
2023/11/03 05:20:41;;;;;;;2.17;1.48;;;17.00;56.80;;;;;;5088254;28;20020;-34
2023/11/03 05:23:07;;;;;;;2.33;1.45;;;16.90;56.80;;;;;;5097642;28;20042;-34
2023/11/03 05:25:33;;;;;;;2.25;1.45;;;17.00;56.90;;;;;;5094768;28;20028;-33
2023/11/03 05:27:59;;;;;;;2.17;1.50;;;17.10;56.90;;;;;;5101877;28;20066;-33
2023/11/03 05:30:25;;;;;;;1.75;1.45;;;17.10;56.80;;;;;;5101907;28;20082;-33
2023/11/03 05:32:52;;;;;;;2.72;1.50;;;17.10;56.80;;;;;;5103256;28;20031;-34
2023/11/03 05:35:18;;;;;;;1.85;1.58;;;17.00;56.80;;;;;;5095872;28;20384;-34
2023/11/03 05:37:45;;;;;;;2.30;1.77;;;17.00;56.80;;;;;;5092907;28;20091;-34
2023/11/03 05:40:12;;;;;;;3.55;1.63;;;17.00;56.90;;;;;;5090992;28;20035;-34
2023/11/03 05:42:41;;;;;;;1.45;1.35;;;17.10;56.90;;;;;;5099917;28;20036;-34
2023/11/03 05:45:08;;;;;;;1.38;1.27;;;17.20;57.00;;;;;;5091676;28;20079;-33
2023/11/03 05:47:35;;;;;;;;;;;17.10;56.80;;;;;;5093487;28;20048;-33
2023/11/03 05:50:03;;;;;;;5.13;1.73;;;17.10;56.90;;;;;;5090630;28;19912;-34
2023/11/03 05:52:30;;;;;;;2.08;1.60;;;17.00;56.80;;;;;;5099214;28;20039;-34
2023/11/03 05:54:56;;;;;;;1.40;1.30;;;17.00;56.90;;;;;;5092889;28;20582;-34
2023/11/03 05:57:22;;;;;;;1.73;1.38;;;17.00;56.90;;;;;;5101184;28;20056;-33
2023/11/03 05:59:48;;;;;;;1.70;1.30;;;17.10;56.90;;;;;;5098475;28;20024;-33
2023/11/03 06:02:15;;;;;;;1.57;1.30;;;17.20;56.90;;;;;;5083754;28;20028;-33
2023/11/03 06:04:42;;;;;;;2.83;1.52;;;17.10;56.80;;;;;;5102126;28;20038;-33
2023/11/03 06:07:09;;;;;;;2.03;1.52;;;17.10;56.80;;;;;;5096064;28;20044;-33
2023/11/03 06:09:37;;;;;;;3.70;1.77;;;17.00;56.80;;;;;;5091699;28;20036;-33
2023/11/03 06:12:05;;;;;;;2.28;1.55;;;16.90;56.80;;;;;;5086624;28;20029;-34
2023/11/03 06:14:31;;;;;;;2.88;1.48;;;17.00;57.00;;;;;;5093457;28;20039;-33
2023/11/03 06:16:57;;;;;;;2.45;1.50;;;17.20;57.00;;;;;;5098559;28;20088;-33
2023/11/03 06:19:24;;;;;;;1.48;1.33;;;17.20;56.90;;;;;;5098693;28;20032;-33
2023/11/03 06:21:50;;;;;;;2.05;1.58;;;17.10;56.80;;;;;;5099375;28;20057;-33
2023/11/03 06:24:16;;;;;;;1.83;1.63;;;17.10;56.80;;;;;;5090814;28;20028;-33
2023/11/03 06:26:42;;;;;;;2.22;1.75;;;17.00;56.80;;;;;;5090182;28;20074;-33
2023/11/03 06:29:08;;;;;;;1.70;1.50;;;17.00;56.90;;;;;;5083434;28;20032;-34
2023/11/03 06:31:34;;;;;;;2.05;1.30;;;17.10;56.90;;;;;;5089189;28;20024;-34
2023/11/03 06:34:01;;;;;;;1.85;1.55;;;17.20;57.00;;;;;;5089704;28;20024;-34
2023/11/03 06:36:27;;;;;;;1.90;1.60;;;17.10;56.80;;;;;;5094159;28;20047;-34
2023/11/03 06:38:54;;;;;;;2.15;1.70;;;17.10;56.80;;;;;;5101858;28;20039;-34
2023/11/03 06:41:20;;;;;;;3.35;1.38;;;17.00;56.70;;;;;;5093711;28;20036;-33
2023/11/03 06:43:46;;;;;;;1.67;1.40;;;17.00;56.80;;;;;;5095374;28;20051;-34
2023/11/03 06:46:12;;;;;;;1.85;1.40;;;17.00;56.90;;;;;;5090565;28;20033;-33
2023/11/03 06:48:39;;;;;;;1.60;1.40;;;17.10;56.90;;;;;;5091744;28;20040;-34
2023/11/03 06:51:11;;;;;;;2.10;1.50;;;17.20;57.00;;;;;;5089567;28;20028;-37
2023/11/03 06:53:37;;;;;;;1.92;1.45;;;17.20;56.80;;;;;;5105897;28;20032;-34
2023/11/03 06:56:05;;;;;;;2.38;1.55;;;17.10;56.70;;;;;;5098874;28;20020;-33
2023/11/03 06:58:32;;;;;;;2.28;1.40;;;17.00;56.70;;;;;;5092213;28;20029;-34
2023/11/03 07:00:59;;;;;;;2.17;1.60;;;17.00;56.80;;;;;;5088602;28;20024;-34
2023/11/03 07:03:25;;;;;;;1.58;1.40;;;16.90;56.90;;;;;;5086261;28;20111;-33
2023/11/03 07:05:52;;;;;;;1.95;1.65;;;17.00;56.90;;;;;;5101218;28;20028;-32
2023/11/03 07:08:19;;;;;;;1.95;1.48;;;17.20;57.00;;;;;;5093806;28;20050;-34
2023/11/03 07:10:45;;;;;;;2.17;1.53;;;17.10;56.80;;;;;;5094357;28;20033;-33
2023/11/03 07:13:11;;;;;;;1.75;1.52;;;17.10;56.80;;;;;;5105043;28;20028;-34
2023/11/03 07:15:37;;;;;;;2.00;1.67;;;17.00;56.80;;;;;;5089700;28;20071;-33
2023/11/03 07:18:04;;;;;;;1.92;1.50;;;17.00;56.90;;;;;;5105622;28;20027;-33
2023/11/03 07:20:30;;;;;;;1.10;0.85;;;17.00;56.90;;;;;;5095127;28;20024;-34
2023/11/03 07:22:57;;;;;;;2.70;1.63;;;17.20;56.90;;;;;;5093520;28;20028;-34
2023/11/03 07:25:26;;;;;;;2.30;1.70;;;17.20;56.90;;;;;;5093223;28;20599;-33
2023/11/03 07:27:52;;;;;;;2.10;1.70;;;17.10;56.80;;;;;;5087395;28;20049;-33
2023/11/03 07:30:19;;;;;;;2.22;1.50;;;17.00;57.30;;;;;;5087245;28;20168;-33
2023/11/03 07:32:46;;;;;;;2.53;1.73;;;17.00;56.90;;;;;;5097233;28;20045;-34
2023/11/03 07:35:13;;;;;;;1.52;1.30;;;17.00;56.90;;;;;;5098973;28;20047;-33
2023/11/03 07:37:40;;;;;;;2.83;1.70;;;17.10;56.90;;;;;;5103580;28;20853;-33
2023/11/03 07:40:06;;;;;;;2.47;1.67;;;17.10;56.90;;;;;;5104730;28;20032;-34
2023/11/03 07:42:32;;;;;;;1.77;1.58;;;17.10;56.80;;;;;;5103642;28;20036;-34
2023/11/03 07:44:58;;;;;;;2.28;1.30;;;17.00;56.90;;;;;;5092969;28;20037;-33
2023/11/03 07:47:25;;;;;;;1.92;1.52;;;17.00;56.90;;;;;;5094105;28;20536;-33
2023/11/03 07:49:53;;;;;;;1.52;1.40;;;16.90;56.90;;;;;;5097423;28;20024;-33
2023/11/03 07:52:19;;;;;;;1.90;1.48;;;17.10;57.00;;;;;;5103246;28;20060;-34
2023/11/03 07:54:45;;;;;;;2.83;1.38;;;17.20;57.00;;;;;;5097486;28;20144;-34
2023/11/03 07:57:12;;;;;;;2.10;1.40;;;17.10;56.90;;;;;;5104728;28;20032;-34
2023/11/03 07:59:41;;;;;;;2.88;1.58;;;17.10;56.90;;;;;;5097175;28;20082;-33
2023/11/03 08:02:07;;;;;;;3.22;1.90;;;17.00;56.90;;;;;;5104578;28;20032;-33
2023/11/03 08:04:33;;;;;;;1.65;1.50;;;16.90;56.90;;;;;;5096550;28;20133;-33
2023/11/03 08:07:00;;;;;;;1.92;1.50;;;17.00;57.00;;;;;;5098939;28;20047;-33
2023/11/03 08:09:27;;;;;;;1.42;1.25;;;17.10;56.90;;;;;;5096394;28;20461;-33
2023/11/03 08:11:57;;;;;;;1.90;1.55;;;17.20;56.90;;;;;;5104356;28;20035;-33
2023/11/03 08:14:24;;;;;;;1.50;1.38;;;17.10;56.80;;;;;;5103501;28;20578;-34
2023/11/03 08:16:50;;;;;;;2.08;1.70;;;17.00;56.80;;;;;;5097769;28;20029;-33
2023/11/03 08:19:16;;;;;;;1.67;1.40;;;17.00;56.90;;;;;;5104084;28;20035;-33
2023/11/03 08:21:42;;;;;;;2.00;1.42;;;16.90;56.90;;;;;;5103902;28;20093;-33
2023/11/03 08:24:13;;;;;;;2.00;1.40;;;17.10;56.90;;;;;;5106988;28;20028;-33
2023/11/03 08:26:43;;;;;;;1.98;1.25;;;17.20;56.90;;;;;;5102275;28;20044;-34
2023/11/03 08:29:09;;;;;;;1.75;1.40;;;17.20;56.90;;;;;;5091147;28;20500;-33
2023/11/03 08:31:35;;;;;;;1.55;1.27;;;17.20;56.90;;;;;;5093415;28;20032;-34
2023/11/03 08:34:06;;;;;;;1.90;1.50;;;17.10;56.90;;;;;;5097989;28;20092;-34
2023/11/03 08:36:33;;;;;;;1.58;1.40;;;17.00;56.90;;;;;;5102132;28;20047;-34
2023/11/03 08:38:59;;;;;;;3.67;1.45;;;17.00;57.00;;;;;;5097602;28;20115;-34
2023/11/03 08:41:26;;;;;;;2.33;1.50;;;17.10;57.00;;;;;;5095309;28;20137;-34
2023/11/03 08:43:53;;;;;;;;;;;17.20;56.90;;;;;;5101337;28;20054;-33
2023/11/03 08:46:19;;;;;;;1.80;1.35;;;17.20;56.90;;;;;;5103638;28;20410;-33
2023/11/03 08:48:46;;;;;;;2.45;1.60;;;17.10;56.80;;;;;;5096421;28;20044;-33
2023/11/03 08:51:12;;;;;;;1.50;1.33;;;17.00;56.90;;;;;;5104401;28;20028;-33
2023/11/03 08:53:40;;;;;;;1.30;1.20;;;17.00;57.00;;;;;;5097382;28;20063;-34
2023/11/03 08:56:06;;;;;;;2.35;1.35;;;17.00;57.00;;;;;;5095731;28;20035;-34
2023/11/03 08:58:34;;;;;;;1.83;1.30;;;17.10;57.00;;;;;;5102063;28;20028;-33
2023/11/03 09:01:00;;;;;;;2.05;1.38;;;17.20;57.00;;;;;;5097937;28;20031;-34
2023/11/03 09:03:28;;;;;;;1.42;1.33;;;17.10;56.80;;;;;;5102709;28;20028;-33
2023/11/03 09:05:54;;;;;;;;;;;17.10;56.90;;;;;;5096778;28;20032;-33
2023/11/03 09:08:20;;;;;;;2.13;1.60;;;17.00;56.90;;;;;;5089017;28;19917;-33
2023/11/03 09:10:46;;;;;;;0.97;0.87;;;17.00;56.90;;;;;;5089486;28;20031;-34
2023/11/03 09:13:15;;;;;;;1.35;1.17;;;17.10;56.90;;;;;;5103269;28;20036;-34
2023/11/03 09:15:44;;;;;;;1.63;1.30;;;17.20;56.90;;;;;;5095181;28;20021;-33
2023/11/03 09:18:10;;;;;;;1.88;1.38;;;17.20;56.90;;;;;;5103136;28;20093;-34
2023/11/03 09:20:38;;;;;;;1.85;1.50;;;17.10;56.80;;;;;;5102120;28;20031;-34
2023/11/03 09:23:04;;;;;;;1.80;1.40;;;17.00;56.80;;;;;;5109043;28;20065;-34
2023/11/03 09:25:31;;;;;;;1.52;1.30;;;17.00;56.90;;;;;;5092502;28;20039;-33
2023/11/03 09:27:57;;;;;;;2.00;1.27;;;17.00;56.90;;;;;;5089313;28;20046;-34
2023/11/03 09:30:23;;;;;;;1.23;1.13;;;17.20;57.00;;;;;;5095236;28;20025;-34
2023/11/03 09:32:49;;;;;;;1.77;1.27;;;17.30;57.00;;;;;;5102490;28;20031;-34
2023/11/03 09:35:15;;;;;;;1.25;1.10;;;17.20;56.90;;;;;;5102227;28;20028;-33
2023/11/03 09:37:42;;;;;;;1.25;1.15;;;17.10;56.80;;;;;;5099167;28;20033;-33
2023/11/03 09:40:09;;;;;;;1.50;1.20;;;17.10;56.90;;;;;;5098028;28;20677;-33
2023/11/03 09:42:36;;;;;;;1.55;1.17;;;17.00;57.50;;;;;;5100570;28;20043;-34
2023/11/03 09:45:09;;;;;;;1.58;1.23;;;17.00;57.00;;;;;;5098053;28;20059;-33
2023/11/03 09:47:36;;;;;;;1.92;1.30;;;17.10;57.50;;;;;;5099233;28;20043;-33
2023/11/03 09:50:05;;;;;;;3.17;1.33;;;17.20;56.90;;;;;;5095830;28;20031;-34
2023/11/03 09:52:33;;;;;;;1.58;1.30;;;17.20;56.90;;;;;;5099189;28;20039;-33
2023/11/03 09:55:00;;;;;;;1.65;1.30;;;17.20;56.90;;;;;;5095157;28;20544;-33
2023/11/03 09:57:26;;;;;;;1.40;1.27;;;17.10;56.90;;;;;;5101100;28;20024;-33
2023/11/03 09:59:53;;;;;;;1.63;1.42;;;17.00;57.00;;;;;;5084639;28;20039;-33
2023/11/03 10:02:20;;;;;;;1.23;1.13;;;17.00;57.00;;;;;;5090477;28;20088;-33
2023/11/03 10:04:46;;;;;;;1.63;1.17;;;17.10;57.00;;;;;;5101492;28;20043;-33
2023/11/03 10:07:13;;;;;;;1.52;1.30;;;17.20;57.00;;;;;;5095858;28;20481;-33
2023/11/03 10:09:42;;;;;;;1.40;1.27;;;17.10;56.80;;;;;;5086955;28;20052;-33
2023/11/03 10:12:20;;;;;;;2.00;1.48;;;17.10;56.90;;;;;;5099548;28;20020;-34
2023/11/03 10:14:46;;;;;;;1.60;1.30;;;17.00;56.90;;;;;;5100890;28;20023;-33
2023/11/03 10:17:14;;;;;;;1.40;1.15;;;17.00;57.10;;;;;;5087128;28;20048;-33
2023/11/03 10:19:43;;;;;;;1.27;1.05;;;17.10;56.90;;;;;;5099172;28;20107;-34
2023/11/03 10:22:10;;;;;;;2.95;1.40;;;17.20;56.90;;;;;;5102559;28;20030;-34
2023/11/03 10:24:37;;;;;;;1.50;1.20;;;17.10;56.80;;;;;;5101254;28;20028;-34
2023/11/03 10:27:03;;;;;;;1.58;1.35;;;17.10;56.80;;;;;;5094310;28;20036;-34
2023/11/03 10:29:30;;;;;;;1.67;1.30;;;17.00;56.90;;;;;;5092868;28;20083;-34
2023/11/03 10:31:56;;;;;;;1.60;1.20;;;17.00;56.90;;;;;;5088422;28;20027;-34
2023/11/03 10:34:23;;;;;;;2.03;1.30;;;17.10;57.00;;;;;;5094552;28;20122;-34
2023/11/03 10:36:55;;;;;;;1.63;1.40;;;17.20;57.00;;;;;;5094459;28;20032;-34
2023/11/03 10:39:21;;;;;;;1.40;1.15;;;17.10;56.80;;;;;;5093008;28;20029;-34
2023/11/03 10:41:47;;;;;;;2.20;1.23;;;17.10;56.80;;;;;;5094078;28;20026;-33
2023/11/03 10:44:16;;;;;;;1.55;1.42;;;17.00;56.90;;;;;;5101564;28;20044;-34
2023/11/03 10:46:49;;;;;;;1.20;1.00;;;17.00;56.90;;;;;;5083239;28;20817;-34
2023/11/03 10:49:43;;;;;;;1.50;1.40;;;17.10;56.90;;;;;;5082773;28;20066;-33
2023/11/03 10:52:18;;;;;;;1.40;1.20;;;17.20;56.80;;;;;;5082457;28;20370;-34
2023/11/03 10:55:04;;;;;;;1.70;1.38;;;17.20;56.80;;;;;;5092510;28;20028;-34
2023/11/03 10:57:32;;;;;;;1.75;1.20;;;17.10;56.80;;;;;;5085930;28;20035;-34
2023/11/03 11:00:12;;;;;;;1.88;1.30;;;17.00;56.90;;;;;;5087352;28;20770;-33
2023/11/03 11:02:49;;;;;;;1.63;1.27;;;17.00;57.00;;;;;;5083156;28;20028;-34
2023/11/03 11:05:20;;;;;;;1.83;1.40;;;17.10;57.00;;;;;;5090948;28;20106;-33
2023/11/03 11:07:51;;;;;;;1.63;1.23;;;17.20;57.00;;;;;;5097491;28;20056;-34
2023/11/03 11:10:19;;;;;;;1.38;1.27;;;17.20;56.90;;;;;;5082535;28;20084;-34
2023/11/03 11:12:49;;;;;;;1.33;1.10;;;17.10;56.80;;;;;;5095981;28;20047;-34
2023/11/03 11:15:21;;;;;;;1.80;1.50;;;17.10;56.90;;;;;;5091041;28;20035;-34
2023/11/03 11:17:47;;;;;;;1.55;1.30;;;17.00;56.90;;;;;;5086842;28;20031;-33
2023/11/03 11:20:17;;;;;;;1.27;1.17;;;17.00;57.00;;;;;;5087911;28;20032;-33
2023/11/03 11:22:50;;;;;;;2.10;1.30;;;17.10;56.90;;;;;;5094469;28;20099;-34
2023/11/03 11:25:17;;;;;;;1.70;1.40;;;17.20;56.90;;;;;;5087807;28;20115;-34
2023/11/03 11:27:52;;;;;;;2.83;1.30;;;17.20;56.90;;;;;;5093299;28;20073;-34
2023/11/03 11:30:18;;;;;;;1.27;1.17;;;17.10;56.80;;;;;;5095290;28;20024;-34
2023/11/03 11:32:51;;;;;;;1.80;1.30;;;17.10;56.90;;;;;;5084287;28;20035;-33
2023/11/03 11:35:25;;;;;;;1.40;1.30;;;17.00;57.00;;;;;;5083880;28;20032;-33
2023/11/03 11:37:52;;;;;;;1.77;1.30;;;17.00;57.00;;;;;;5085870;28;20043;-34
2023/11/03 11:40:18;;;;;;;1.60;1.50;;;17.10;57.00;;;;;;5086326;28;20032;-34
2023/11/03 11:42:45;;;;;;;1.48;1.38;;;17.20;56.90;;;;;;5088412;28;20032;-34
2023/11/03 11:45:12;;;;;;;1.30;1.10;;;17.20;57.00;;;;;;5100340;28;20047;-34
2023/11/03 11:47:43;;;;;;;;;;;17.10;56.80;;;;;;5087127;28;20051;-34
2023/11/03 11:50:11;;;;;;;1.75;1.40;;;17.00;56.90;;;;;;5095661;28;20589;-37
2023/11/03 11:52:38;;;;;;;1.83;1.50;;;17.00;57.50;;;;;;5098829;28;20047;-32
2023/11/03 11:55:07;;;;;;;1.83;1.45;;;17.00;57.00;;;;;;5086263;28;20048;-33
2023/11/03 11:57:33;;;;;;;1.80;1.38;;;17.20;57.00;;;;;;5086705;28;20044;-33
2023/11/03 12:00:00;;;;;;;1.93;1.77;;;17.20;56.90;;;;;;5086142;28;20055;-33
2023/11/03 12:02:26;;;;;;;1.40;1.30;;;17.10;56.80;;;;;;5087259;28;20043;-33
2023/11/03 12:04:53;;;;;;;1.50;1.27;;;17.10;56.90;;;;;;5094397;28;20025;-33
2023/11/03 12:07:22;;;;;;;;;;;17.00;57.00;;;;;;5095540;28;20048;-34
2023/11/03 12:09:50;;;;;;;1.40;1.25;;;17.00;57.00;;;;;;5105584;28;19915;-33
2023/11/03 12:12:17;;;;;;;1.75;1.30;;;17.10;57.00;;;;;;5102710;28;20034;-33
2023/11/03 12:14:43;;;;;;;1.55;1.40;;;17.20;56.90;;;;;;5097151;28;20029;-33
2023/11/03 12:17:10;;;;;;;1.58;1.30;;;17.20;56.90;;;;;;5091692;28;20041;-33
2023/11/03 12:19:36;;;;;;;1.50;1.40;;;17.10;56.90;;;;;;5092244;28;20032;-33
2023/11/03 12:22:04;;;;;;;1.60;1.33;;;17.00;56.90;;;;;;5089887;28;20473;-33
2023/11/03 12:24:29;;;;;;;;;;;17.00;57.00;;;;;;5088887;28;20082;-33
2023/11/03 12:26:57;;;;;;;1.70;1.38;;;17.10;56.90;;;;;;5091587;28;19924;-33
2023/11/03 12:29:29;;;;;;;;;;;17.20;56.90;;;;;;5093632;28;20043;-33
2023/11/03 12:31:57;;;;;;;1.65;1.40;;;17.20;56.90;;;;;;5089044;28;19916;-33
2023/11/03 12:34:24;;;;;;;1.65;1.50;;;17.10;56.80;;;;;;5102282;28;20031;-33
2023/11/03 12:36:50;;;;;;;;;;;17.00;56.80;;;;;;5087835;28;20083;-34
2023/11/03 12:39:18;;;;;;;1.65;1.30;;;17.00;56.90;;;;;;5094267;28;20410;-34
2023/11/03 12:41:51;;;;;;;2.00;1.50;;;17.00;56.90;;;;;;5094970;28;20811;-34
2023/11/03 12:44:17;;;;;;;2.88;1.55;;;17.10;56.90;;;;;;5091733;28;20059;-34
2023/11/03 12:46:46;;;;;;;1.33;1.13;;;17.20;56.90;;;;;;5100152;28;20048;-34
2023/11/03 12:49:14;;;;;;;1.60;1.50;;;17.20;56.80;;;;;;5092955;28;20032;-33
2023/11/03 12:51:42;;;;;;;3.03;1.48;;;17.10;56.80;;;;;;5086740;28;20028;-33